Van Wert, Ohio
Current Conditions -  °F | °C
As of 8:34 PM on Tuesday 25 Nov 2014 (Local Time) from KAXV Reporting Station
Overcast Overcast  
Wind Chill: 25°   Ceiling: 1400
Heat Index: 30°   Visibility: 10mi
Dew Point: 27°   Wind: 5mph
Humidity: 86%   Direction: 330°NNW
Pressure: 30.2"   Gusts: NA
Location:  40.87°N, 84.58°W
Report Text: KAXV 260134Z AUTO 33004KT 10SM OVC014 M01/M03 A3020 RMK AO2
Loading
Personal Weather Stations






























Interactive Weather Map New forecast layout! Learn more

10-Day Weather Forecast

Advertisements
Track Severe Weather on mobile